HP21 MPEJ-MPEJ
Flight info
| Callsign | HP21 |
|---|---|
| Flight time | 0h 4m |
| Altitude | 1100 |
| Route | LOCAL |
| Aircraft | DA40/L-SG/C |
Departure
| Time | 2026-04-21 19:26 |
|---|---|
| Airport | Enrique Adolfo Jimenez Airport (MPEJ) |
Arrival
| Time | 2026-04-21 19:31 |
|---|---|
| Airport | Enrique Adolfo Jimenez Airport (MPEJ) |
| Time | Latitude | Longitude | Altitude | Speed | Heading |
|---|---|---|---|---|---|
| 2026-04-21 19:22 | 9.35368 | -79.86581 | 30 ft | 0 kts | 306° |
| 2026-04-21 19:24 | 9.35370 | -79.86583 | 36 ft | 4 kts | 306° |
| 2026-04-21 19:25 | 9.35371 | -79.86625 | 30 ft | 10 kts | 263° |
| 2026-04-21 19:25 | 9.35376 | -79.86723 | 31 ft | 15 kts | 280° |
| 2026-04-21 19:25 | 9.35436 | -79.86750 | 31 ft | 17 kts | 1° |
| 2026-04-21 19:25 | 9.35724 | -79.86741 | 32 ft | 62 kts | 1° |
| 2026-04-21 19:26 | 9.36174 | -79.86706 | 200 ft | 66 kts | 4° |
| 2026-04-21 19:26 | 9.36637 | -79.86687 | 362 ft | 67 kts | 3° |
| 2026-04-21 19:26 | 9.37117 | -79.86660 | 529 ft | 70 kts | 1° |
| 2026-04-21 19:26 | 9.37667 | -79.86647 | 655 ft | 81 kts | 0° |
| 2026-04-21 19:27 | 9.38223 | -79.86696 | 949 ft | 80 kts | 334° |
| 2026-04-21 19:27 | 9.38438 | -79.87258 | 966 ft | 100 kts | 269° |
| 2026-04-21 19:27 | 9.38364 | -79.87978 | 948 ft | 104 kts | 276° |
| 2026-04-21 19:27 | 9.37931 | -79.88530 | 1197 ft | 111 kts | 201° |
| 2026-04-21 19:28 | 9.37055 | -79.88585 | 1168 ft | 132 kts | 183° |
| 2026-04-21 19:28 | 9.36120 | -79.88660 | 1131 ft | 134 kts | 187° |
| 2026-04-21 19:28 | 9.35180 | -79.88708 | 1043 ft | 138 kts | 184° |
| 2026-04-21 19:28 | 9.34219 | -79.88743 | 959 ft | 140 kts | 182° |
| 2026-04-21 19:29 | 9.33301 | -79.88720 | 918 ft | 126 kts | 179° |
| 2026-04-21 19:29 | 9.32466 | -79.88504 | 706 ft | 125 kts | 134° |
| 2026-04-21 19:29 | 9.32199 | -79.87778 | 659 ft | 102 kts | 90° |
| 2026-04-21 19:29 | 9.32131 | -79.87313 | 619 ft | 97 kts | 90° |
| 2026-04-21 19:30 | 9.32348 | -79.86801 | 575 ft | 80 kts | 7° |
| 2026-04-21 19:30 | 9.32913 | -79.86845 | 481 ft | 80 kts | 1° |
| 2026-04-21 19:30 | 9.33283 | -79.86831 | 460 ft | 73 kts | 2° |
| 2026-04-21 19:30 | 9.33676 | -79.86814 | 337 ft | 78 kts | 359° |
| 2026-04-21 19:31 | 9.34195 | -79.86785 | 267 ft | 70 kts | 359° |
| 2026-04-21 19:31 | 9.34657 | -79.86780 | 97 ft | 68 kts | 3° |
| 2026-04-21 19:31 | 9.35088 | -79.86756 | 31 ft | 49 kts | 359° |
| 2026-04-21 19:31 | 9.35337 | -79.86751 | 31 ft | 24 kts | 6° |
| 2026-04-21 19:32 | 9.35376 | -79.86693 | 34 ft | 5 kts | 96° |
| 2026-04-21 19:32 | 9.35362 | -79.86654 | 30 ft | 7 kts | 89° |
| 2026-04-21 19:32 | 9.35360 | -79.86591 | 30 ft | 9 kts | 97° |
| 2026-04-21 19:32 | 9.35367 | -79.86581 | 30 ft | 1 kts | 307° |
| 2026-04-21 19:33 | 9.35367 | -79.86585 | 30 ft | 0 kts | 271° |
| 2026-04-21 19:39 | 9.35367 | -79.86596 | 30 ft | 10 kts | 274° |
| 2026-04-21 19:39 | 9.35379 | -79.86671 | 30 ft | 10 kts | 264° |
| 2026-04-21 19:39 | 9.35377 | -79.86718 | 31 ft | 3 kts | 272° |
| 2026-04-21 19:40 | 9.35397 | -79.86755 | 31 ft | 8 kts | 16° |
| 2026-04-21 19:40 | 9.35440 | -79.86750 | 31 ft | 0 kts | 1° |
| 2026-04-21 19:40 | 9.35589 | -79.86745 | 30 ft | 47 kts | 2° |
| 2026-04-21 19:41 | 9.36025 | -79.86731 | 64 ft | 74 kts | 359° |
| 2026-04-21 19:41 | 9.36544 | -79.86721 | 241 ft | 75 kts | 360° |
| 2026-04-21 19:41 | 9.37075 | -79.86709 | 394 ft | 78 kts | 359° |
| 2026-04-21 19:41 | 9.37633 | -79.86694 | 546 ft | 84 kts | 2° |
| 2026-04-21 19:42 | 9.38246 | -79.86676 | 771 ft | 82 kts | 359° |
| 2026-04-21 19:42 | 9.38807 | -79.86627 | 830 ft | 83 kts | 1° |
| 2026-04-21 19:42 | 9.39355 | -79.86579 | 990 ft | 80 kts | 2° |
| 2026-04-21 19:42 | 9.39921 | -79.86528 | 1199 ft | 78 kts | 4° |
| 2026-04-21 19:43 | 9.40369 | -79.86327 | 1069 ft | 80 kts | 44° |
| 2026-04-21 19:43 | 9.40506 | -79.85743 | 722 ft | 97 kts | 95° |
| 2026-04-21 19:43 | 9.40102 | -79.85198 | 453 ft | 102 kts | 147° |
| 2026-04-21 19:43 | 9.39445 | -79.85079 | 231 ft | 96 kts | 184° |
| 2026-04-21 19:44 | 9.38843 | -79.85243 | 107 ft | 90 kts | 212° |
| 2026-04-21 19:44 | 9.38356 | -79.85631 | 232 ft | 90 kts | 236° |
| 2026-04-21 19:44 | 9.38053 | -79.86185 | 295 ft | 89 kts | 254° |
| 2026-04-21 19:44 | 9.37597 | -79.86599 | 244 ft | 91 kts | 202° |
| 2026-04-21 19:45 | 9.36991 | -79.86701 | 56 ft | 81 kts | 182° |
| 2026-04-21 19:45 | 9.36505 | -79.86718 | 29 ft | 69 kts | 180° |
| 2026-04-21 19:45 | 9.35941 | -79.86735 | 30 ft | 87 kts | 180° |
| 2026-04-21 19:45 | 9.35446 | -79.86750 | 31 ft | 51 kts | 182° |
| 2026-04-21 19:46 | 9.35351 | -79.86709 | 31 ft | 8 kts | 50° |
| 2026-04-21 19:46 | 9.35376 | -79.86722 | 31 ft | 0 kts | 277° |
| 2026-04-21 19:48 | 9.35398 | -79.86762 | 31 ft | 11 kts | 9° |
| 2026-04-21 19:49 | 9.35503 | -79.86747 | 31 ft | 0 kts | 2° |
| 2026-04-21 19:49 | 9.35529 | -79.86747 | 31 ft | 21 kts | 1° |
| 2026-04-21 19:49 | 9.35842 | -79.86738 | 32 ft | 65 kts | 359° |
| 2026-04-21 19:49 | 9.36338 | -79.86726 | 144 ft | 75 kts | 358° |
| 2026-04-21 19:50 | 9.36860 | -79.86707 | 306 ft | 78 kts | 3° |
| 2026-04-21 19:50 | 9.37411 | -79.86672 | 485 ft | 78 kts | 3° |
| 2026-04-21 19:50 | 9.38005 | -79.86654 | 649 ft | 84 kts | 1° |
| 2026-04-21 19:50 | 9.38492 | -79.86622 | 868 ft | 72 kts | 359° |
| 2026-04-21 19:51 | 9.38882 | -79.86576 | 889 ft | 76 kts | 2° |
| 2026-04-21 19:51 | 9.38950 | -79.86565 | 883 ft | 79 kts | 2° |
| 2026-04-21 19:52 | 9.39543 | -79.86536 | 986 ft | 88 kts | 1° |
| 2026-04-21 19:52 | 9.40130 | -79.86517 | 1209 ft | 76 kts | 6° |
| 2026-04-21 19:52 | 9.40525 | -79.86156 | 849 ft | 97 kts | 73° |
| 2026-04-21 19:52 | 9.40275 | -79.85566 | 634 ft | 97 kts | 143° |
| 2026-04-21 19:53 | 9.39622 | -79.85462 | 374 ft | 92 kts | 187° |
| 2026-04-21 19:53 | 9.39053 | -79.85608 | 209 ft | 75 kts | 200° |
| 2026-04-21 19:53 | 9.38600 | -79.85819 | 181 ft | 75 kts | 210° |
| 2026-04-21 19:53 | 9.38198 | -79.86159 | 214 ft | 80 kts | 225° |
| 2026-04-21 19:54 | 9.37746 | -79.86534 | 280 ft | 91 kts | 211° |
| 2026-04-21 19:54 | 9.37129 | -79.86690 | 238 ft | 90 kts | 180° |
| 2026-04-21 19:54 | 9.36517 | -79.86718 | 56 ft | 82 kts | 183° |
| 2026-04-21 19:54 | 9.36040 | -79.86732 | 29 ft | 61 kts | 181° |
| 2026-04-21 19:55 | 9.35564 | -79.86743 | 31 ft | 68 kts | 182° |
| 2026-04-21 19:55 | 9.35329 | -79.86660 | 31 ft | 16 kts | 52° |
| 2026-04-21 19:55 | 9.35372 | -79.86662 | 30 ft | 6 kts | 328° |
| 2026-04-21 19:55 | 9.35388 | -79.86724 | 31 ft | 8 kts | 298° |
| 2026-04-21 19:56 | 9.35421 | -79.86754 | 31 ft | 11 kts | 342° |
| 2026-04-21 19:56 | 9.35470 | -79.86749 | 31 ft | 4 kts | 3° |
| 2026-04-21 19:56 | 9.35580 | -79.86745 | 30 ft | 41 kts | 1° |
| 2026-04-21 19:57 | 9.35984 | -79.86729 | 92 ft | 67 kts | 2° |
| 2026-04-21 19:57 | 9.36450 | -79.86720 | 300 ft | 65 kts | 1° |
| 2026-04-21 19:57 | 9.36929 | -79.86695 | 446 ft | 74 kts | 4° |
| 2026-04-21 19:57 | 9.37451 | -79.86639 | 635 ft | 76 kts | 3° |
| 2026-04-21 19:58 | 9.37968 | -79.86617 | 870 ft | 75 kts | 0° |
| 2026-04-21 19:58 | 9.38430 | -79.86541 | 1045 ft | 71 kts | 1° |
| 2026-04-21 19:58 | 9.38851 | -79.86515 | 1123 ft | 72 kts | 359° |
| 2026-04-21 19:59 | 9.39124 | -79.86490 | 1214 ft | 66 kts | 7° |
| 2026-04-21 19:59 | 9.39447 | -79.86131 | 919 ft | 87 kts | 74° |
| 2026-04-21 20:00 | 9.39289 | -79.85566 | 797 ft | 81 kts | 121° |
| 2026-04-21 20:00 | 9.38762 | -79.85302 | 609 ft | 88 kts | 178° |
| 2026-04-21 20:00 | 9.38231 | -79.85516 | 400 ft | 77 kts | 219° |
| 2026-04-21 20:00 | 9.37882 | -79.85908 | 328 ft | 78 kts | 236° |
| 2026-04-21 20:01 | 9.37507 | -79.86324 | 361 ft | 80 kts | 227° |
| 2026-04-21 20:01 | 9.37035 | -79.86664 | 171 ft | 84 kts | 204° |
| 2026-04-21 20:01 | 9.36510 | -79.86719 | 33 ft | 65 kts | 181° |
| 2026-04-21 20:01 | 9.36117 | -79.86730 | 28 ft | 58 kts | 181° |
| 2026-04-21 20:02 | 9.35603 | -79.86746 | 37 ft | 89 kts | 176° |
| 2026-04-21 20:02 | 9.35110 | -79.86751 | 31 ft | 47 kts | 184° |
| 2026-04-21 20:02 | 9.35016 | -79.86768 | 29 ft | 12 kts | 305° |
| 2026-04-21 20:02 | 9.35249 | -79.86755 | 31 ft | 56 kts | 1° |
| 2026-04-21 20:03 | 9.35740 | -79.86730 | 97 ft | 78 kts | 1° |
| 2026-04-21 20:03 | 9.36258 | -79.86728 | 329 ft | 70 kts | 360° |
| 2026-04-21 20:03 | 9.36751 | -79.86705 | 520 ft | 74 kts | 5° |
| 2026-04-21 20:03 | 9.37296 | -79.86648 | 699 ft | 72 kts | 4° |
| 2026-04-21 20:04 | 9.37834 | -79.86640 | 845 ft | 80 kts | 354° |
| 2026-04-21 20:04 | 9.38355 | -79.86564 | 1031 ft | 76 kts | 9° |
| 2026-04-21 20:04 | 9.38876 | -79.86454 | 1151 ft | 78 kts | 9° |
| 2026-04-21 20:04 | 9.39356 | -79.86309 | 1182 ft | 74 kts | 46° |
| 2026-04-21 20:05 | 9.39089 | -79.85811 | 877 ft | 96 kts | 171° |
| 2026-04-21 20:05 | 9.38497 | -79.86040 | 594 ft | 93 kts | 220° |
| 2026-04-21 20:05 | 9.37982 | -79.86397 | 424 ft | 84 kts | 214° |
| 2026-04-21 20:05 | 9.37460 | -79.86643 | 219 ft | 82 kts | 200° |
| 2026-04-21 20:06 | 9.36905 | -79.86709 | 31 ft | 71 kts | 180° |
| 2026-04-21 20:06 | 9.36491 | -79.86716 | 29 ft | 55 kts | 181° |
| 2026-04-21 20:06 | 9.36121 | -79.86730 | 28 ft | 53 kts | 181° |
| 2026-04-21 20:06 | 9.35924 | -79.86734 | 29 ft | 13 kts | 182° |
| 2026-04-21 20:07 | 9.35756 | -79.86739 | 30 ft | 35 kts | 179° |
| 2026-04-21 20:07 | 9.35462 | -79.86747 | 34 ft | 48 kts | 185° |
| 2026-04-21 20:07 | 9.35329 | -79.86729 | 31 ft | 7 kts | 351° |
| 2026-04-21 20:07 | 9.35408 | -79.86750 | 31 ft | 0 kts | 2° |
| 2026-04-21 20:08 | 9.35512 | -79.86748 | 31 ft | 40 kts | 2° |
| 2026-04-21 20:08 | 9.35924 | -79.86733 | 90 ft | 67 kts | 0° |
| 2026-04-21 20:08 | 9.36382 | -79.86708 | 298 ft | 66 kts | 0° |
| 2026-04-21 20:08 | 9.36845 | -79.86692 | 482 ft | 71 kts | 2° |
| 2026-04-21 20:09 | 9.37357 | -79.86665 | 627 ft | 74 kts | 359° |
| 2026-04-21 20:09 | 9.37875 | -79.86697 | 840 ft | 72 kts | 353° |
| 2026-04-21 20:09 | 9.38328 | -79.86692 | 1006 ft | 69 kts | 0° |
| 2026-04-21 20:09 | 9.38838 | -79.86627 | 1103 ft | 69 kts | 2° |
| 2026-04-21 20:10 | 9.39338 | -79.86582 | 1266 ft | 72 kts | 359° |
| 2026-04-21 20:10 | 9.39850 | -79.86563 | 1411 ft | 78 kts | 3° |
| 2026-04-21 20:10 | 9.40410 | -79.86508 | 1530 ft | 84 kts | 0° |
| 2026-04-21 20:10 | 9.40966 | -79.86477 | 1722 ft | 80 kts | 4° |
| 2026-04-21 20:11 | 9.41506 | -79.86405 | 1889 ft | 81 kts | 4° |
| 2026-04-21 20:11 | 9.42040 | -79.86351 | 2078 ft | 79 kts | 1° |
| 2026-04-21 20:11 | 9.42605 | -79.86319 | 2254 ft | 77 kts | 3° |
| 2026-04-21 20:11 | 9.43040 | -79.86151 | 1980 ft | 92 kts | 72° |
| 2026-04-21 20:12 | 9.42586 | -79.85693 | 1655 ft | 110 kts | 182° |
| 2026-04-21 20:12 | 9.41890 | -79.85885 | 1459 ft | 103 kts | 204° |
| 2026-04-21 20:12 | 9.41437 | -79.86042 | 1305 ft | 104 kts | 201° |
| 2026-04-21 20:12 | 9.40515 | -79.86233 | 1033 ft | 97 kts | 195° |
| 2026-04-21 20:13 | 9.39854 | -79.86346 | 757 ft | 99 kts | 190° |
| 2026-04-21 20:13 | 9.39161 | -79.86476 | 480 ft | 100 kts | 191° |
| 2026-04-21 20:13 | 9.38538 | -79.86574 | 402 ft | 83 kts | 191° |
| 2026-04-21 20:13 | 9.37977 | -79.86647 | 209 ft | 75 kts | 188° |
| 2026-04-21 20:14 | 9.37496 | -79.86687 | 44 ft | 65 kts | 185° |
| 2026-04-21 20:14 | 9.37125 | -79.86698 | 30 ft | 45 kts | 182° |
| 2026-04-21 20:14 | 9.36840 | -79.86708 | 30 ft | 44 kts | 181° |
| 2026-04-21 20:14 | 9.36499 | -79.86715 | 29 ft | 53 kts | 183° |
| 2026-04-21 20:15 | 9.36099 | -79.86731 | 28 ft | 61 kts | 181° |
| 2026-04-21 20:15 | 9.35654 | -79.86742 | 30 ft | 66 kts | 182° |
| 2026-04-21 20:15 | 9.35287 | -79.86770 | 31 ft | 24 kts | 165° |
| 2026-04-21 20:15 | 9.35332 | -79.86749 | 31 ft | 28 kts | 330° |
| 2026-04-21 20:16 | 9.35425 | -79.86797 | 31 ft | 18 kts | 335° |
| 2026-04-21 20:16 | 9.35572 | -79.86766 | 30 ft | 49 kts | 9° |
| 2026-04-21 20:16 | 9.36014 | -79.86728 | 114 ft | 70 kts | 0° |
| 2026-04-21 20:16 | 9.36489 | -79.86702 | 362 ft | 64 kts | 3° |
| 2026-04-21 20:17 | 9.36939 | -79.86658 | 442 ft | 79 kts | 7° |
| 2026-04-21 20:17 | 9.37525 | -79.86679 | 611 ft | 87 kts | 355° |
| 2026-04-21 20:17 | 9.38084 | -79.86704 | 956 ft | 71 kts | 353° |
| 2026-04-21 20:17 | 9.38628 | -79.86724 | 962 ft | 84 kts | 355° |
| 2026-04-21 20:18 | 9.38992 | -79.86724 | 1153 ft | 75 kts | 358° |
| 2026-04-21 20:18 | 9.39719 | -79.86675 | 1402 ft | 78 kts | 4° |
| 2026-04-21 20:18 | 9.40276 | -79.86616 | 1522 ft | 84 kts | 2° |
| 2026-04-21 20:18 | 9.40851 | -79.86588 | 1689 ft | 84 kts | 359° |
| 2026-04-21 20:19 | 9.41449 | -79.86606 | 1898 ft | 78 kts | 357° |
| 2026-04-21 20:19 | 9.42006 | -79.86603 | 2073 ft | 79 kts | 1° |
| 2026-04-21 20:19 | 9.42560 | -79.86593 | 2255 ft | 80 kts | 3° |
| 2026-04-21 20:19 | 9.43018 | -79.86468 | 2047 ft | 87 kts | 65° |
| 2026-04-21 20:20 | 9.42518 | -79.86142 | 1688 ft | 106 kts | 187° |
| 2026-04-21 20:20 | 9.41822 | -79.86264 | 1494 ft | 103 kts | 192° |
| 2026-04-21 20:20 | 9.41102 | -79.86357 | 1239 ft | 104 kts | 191° |
| 2026-04-21 20:20 | 9.40412 | -79.86425 | 1077 ft | 94 kts | 189° |
| 2026-04-21 20:21 | 9.39758 | -79.86494 | 805 ft | 97 kts | 187° |
| 2026-04-21 20:21 | 9.39078 | -79.86562 | 545 ft | 95 kts | 187° |
| 2026-04-21 20:21 | 9.38462 | -79.86626 | 390 ft | 85 kts | 186° |
| 2026-04-21 20:21 | 9.37900 | -79.86662 | 240 ft | 76 kts | 187° |
| 2026-04-21 20:22 | 9.37385 | -79.86680 | 41 ft | 70 kts | 185° |
| 2026-04-21 20:22 | 9.36507 | -79.86713 | 29 ft | 84 kts | 182° |
| 2026-04-21 20:22 | 9.35899 | -79.86738 | 44 ft | 78 kts | 178° |
| 2026-04-21 20:23 | 9.35470 | -79.86749 | 31 ft | 41 kts | 188° |
| 2026-04-21 20:23 | 9.35349 | -79.86736 | 31 ft | 1 kts | 13° |
| 2026-04-21 20:23 | 9.35521 | -79.86748 | 31 ft | 48 kts | 1° |
| 2026-04-21 20:23 | 9.35940 | -79.86742 | 66 ft | 68 kts | 358° |
| 2026-04-21 20:24 | 9.36418 | -79.86763 | 198 ft | 67 kts | 359° |
| 2026-04-21 20:24 | 9.36888 | -79.86753 | 291 ft | 71 kts | 1° |
| 2026-04-21 20:24 | 9.37363 | -79.86755 | 550 ft | 62 kts | 8° |
| 2026-04-21 20:24 | 9.37817 | -79.86841 | 620 ft | 71 kts | 345° |
| 2026-04-21 20:25 | 9.38300 | -79.86880 | 806 ft | 66 kts | 354° |
| 2026-04-21 20:25 | 9.38765 | -79.86884 | 913 ft | 72 kts | 2° |
| 2026-04-21 20:25 | 9.39237 | -79.86822 | 1101 ft | 68 kts | 4° |
| 2026-04-21 20:25 | 9.39745 | -79.86786 | 1161 ft | 83 kts | 1° |
| 2026-04-21 20:26 | 9.40376 | -79.86749 | 1193 ft | 96 kts | 360° |
| 2026-04-21 20:26 | 9.41083 | -79.86696 | 1225 ft | 106 kts | 1° |
| 2026-04-21 20:26 | 9.41833 | -79.86639 | 1253 ft | 109 kts | 2° |
| 2026-04-21 20:26 | 9.42604 | -79.86607 | 1276 ft | 113 kts | 2° |
| 2026-04-21 20:27 | 9.43402 | -79.86594 | 1298 ft | 116 kts | 0° |
| 2026-04-21 20:27 | 9.44207 | -79.86565 | 1326 ft | 115 kts | 2° |
| 2026-04-21 20:27 | 9.44739 | -79.86550 | 1345 ft | 115 kts | 1° |
| 2026-04-21 20:27 | 9.45793 | -79.86531 | 1495 ft | 106 kts | 2° |
| 2026-04-21 20:28 | 9.46250 | -79.86531 | 1699 ft | 91 kts | 1° |
| 2026-04-21 20:28 | 9.46959 | -79.86536 | 2147 ft | 62 kts | 0° |
| 2026-04-21 20:28 | 9.47226 | -79.86527 | 2282 ft | 60 kts | 1° |
| 2026-04-21 20:28 | 9.47637 | -79.86489 | 2416 ft | 59 kts | 2° |
| 2026-04-21 20:29 | 9.48071 | -79.86468 | 2530 ft | 64 kts | 7° |
| 2026-04-21 20:29 | 9.48480 | -79.86423 | 2694 ft | 60 kts | 0° |
| 2026-04-21 20:29 | 9.48885 | -79.86433 | 2813 ft | 58 kts | 355° |
| 2026-04-21 20:29 | 9.49301 | -79.86452 | 2911 ft | 60 kts | 6° |
| 2026-04-21 20:30 | 9.49724 | -79.86449 | 3028 ft | 64 kts | 1° |
| 2026-04-21 20:30 | 9.50176 | -79.86435 | 3173 ft | 59 kts | 359° |
| 2026-04-21 20:30 | 9.50639 | -79.86469 | 3210 ft | 77 kts | 7° |
| 2026-04-21 20:30 | 9.51079 | -79.86422 | 3485 ft | 60 kts | 355° |
| 2026-04-21 20:31 | 9.51538 | -79.86448 | 3664 ft | 56 kts | 358° |
| 2026-04-21 20:31 | 9.52002 | -79.86473 | 3715 ft | 71 kts | 356° |
| 2026-04-21 20:31 | 9.52512 | -79.86502 | 3840 ft | 74 kts | 359° |
| 2026-04-21 20:31 | 9.52978 | -79.86508 | 4040 ft | 65 kts | 359° |
| 2026-04-21 20:32 | 9.53459 | -79.86512 | 4113 ft | 75 kts | 1° |
| 2026-04-21 20:32 | 9.54003 | -79.86511 | 4242 ft | 79 kts | 6° |
| 2026-04-21 20:32 | 9.54555 | -79.86527 | 4395 ft | 84 kts | 355° |
| 2026-04-21 20:32 | 9.55105 | -79.86569 | 4463 ft | 71 kts | 25° |
| 2026-04-21 20:33 | 9.54939 | -79.86128 | 3950 ft | 116 kts | 175° |
| 2026-04-21 20:33 | 9.54220 | -79.86287 | 3834 ft | 99 kts | 192° |
| 2026-04-21 20:33 | 9.53555 | -79.86430 | 3626 ft | 97 kts | 189° |
| 2026-04-21 20:33 | 9.52891 | -79.86516 | 3385 ft | 97 kts | 184° |
| 2026-04-21 20:34 | 9.52200 | -79.86554 | 3093 ft | 101 kts | 182° |
| 2026-04-21 20:34 | 9.51504 | -79.86573 | 2806 ft | 105 kts | 180° |
| 2026-04-21 20:34 | 9.50735 | -79.86602 | 2540 ft | 105 kts | 183° |
| 2026-04-21 20:34 | 9.50054 | -79.86645 | 2397 ft | 96 kts | 182° |
| 2026-04-21 20:35 | 9.49385 | -79.86680 | 2134 ft | 96 kts | 181° |
| 2026-04-21 20:35 | 9.48709 | -79.86705 | 1870 ft | 98 kts | 180° |
| 2026-04-21 20:35 | 9.48027 | -79.86711 | 1605 ft | 98 kts | 178° |
| 2026-04-21 20:35 | 9.47334 | -79.86721 | 1370 ft | 99 kts | 181° |
| 2026-04-21 20:36 | 9.46652 | -79.86723 | 1162 ft | 96 kts | 180° |
| 2026-04-21 20:36 | 9.45980 | -79.86722 | 912 ft | 101 kts | 178° |
| 2026-04-21 20:36 | 9.45299 | -79.86724 | 758 ft | 92 kts | 176° |
| 2026-04-21 20:36 | 9.44672 | -79.86736 | 603 ft | 85 kts | 180° |
| 2026-04-21 20:37 | 9.44062 | -79.86715 | 378 ft | 90 kts | 177° |
| 2026-04-21 20:37 | 9.43453 | -79.86707 | 184 ft | 82 kts | 180° |
| 2026-04-21 20:37 | 9.42917 | -79.86723 | 51 ft | 71 kts | 182° |
| 2026-04-21 20:37 | 9.42575 | -79.86736 | 0 ft | 6 kts | 176° |
| 2026-04-21 20:38 | 9.42523 | -79.86728 | 0 ft | 8 kts | 182° |
| 2026-04-21 20:38 | 9.42498 | -79.86729 | 0 ft | 8 kts | 178° |